Time;durP1;ratioP1;P1;durP2;ratioP2;P2;SDS_P1;SDS_P2;PMS_P1;PMS_P2;Temp;Humidity;BMP_temperature;BMP_pressure;BME280_temperature;BME280_humidity;BME280_pressure;Samples;Min_cycle;Max_cycle;Signal;HPM_P1;HPM_P2
2023/10/25 00:00:52;;;;;;;;;;;;;;;13.94;63.83;100076.25;4939782;29;20418;-74
2023/10/25 00:03:17;;;;;;;;;;;;;;;13.94;63.57;100080.88;4944707;29;19922;-74
2023/10/25 00:05:43;;;;;;;;;;;;;;;13.94;63.58;100072.72;4935459;29;19929;-74
2023/10/25 00:08:08;;;;;;;;;;;;;;;13.92;63.64;100070.28;4937329;29;19950;-74
2023/10/25 00:10:33;;;;;;;;;;;;;;;13.91;63.88;100063.22;4935261;29;19922;-74
2023/10/25 00:12:59;;;;;;;;;;;;;;;13.91;63.75;100067.81;4941170;29;20001;-75
2023/10/25 00:15:25;;;;;;;;;;;;;;;13.89;63.62;100064.59;4934766;29;20359;-74
2023/10/25 00:17:50;;;;;;;;;;;;;;;13.88;63.81;100063.78;4935451;29;20030;-74
2023/10/25 00:20:15;;;;;;;;;;;;;;;13.87;63.82;100058.63;4932918;29;20414;-74
2023/10/25 00:22:41;;;;;;;;;;;;;;;13.87;63.85;100066.78;4934730;29;20348;-77
2023/10/25 00:25:06;;;;;;;;;;;;;;;13.85;63.84;100059.72;4950807;29;19922;-74
2023/10/25 00:27:31;;;;;;;;;;;;;;;13.84;63.80;100052.69;4952482;28;19922;-74
2023/10/25 00:29:57;;;;;;;;;;;;;;;13.84;63.88;100049.16;4941089;29;19918;-74
2023/10/25 00:32:22;;;;;;;;;;;;;;;13.83;63.63;100061.94;4940428;29;19977;-74
2023/10/25 00:34:47;;;;;;;;;;;;;;;13.82;63.74;100062.19;4952804;28;20363;-74
2023/10/25 00:37:12;;;;;;;;;;;;;;;13.81;63.68;100060.59;4956406;28;19933;-74
2023/10/25 00:39:38;;;;;;;;;;;;;;;13.80;63.71;100057.03;4941042;29;19986;-74
2023/10/25 00:42:03;;;;;;;;;;;;;;;13.80;63.55;100058.94;4952243;29;19925;-75
2023/10/25 00:44:28;;;;;;;;;;;;;;;13.79;63.64;100055.44;4947121;29;19929;-74
2023/10/25 00:46:54;;;;;;;;;;;;;;;13.77;63.65;100054.88;4946883;29;19926;-74
2023/10/25 00:49:19;;;;;;;;;;;;;;;13.77;63.69;100059.50;4945622;28;19922;-74
2023/10/25 00:51:46;;;;;;;;;;;;;;;13.75;63.79;100048.13;4940760;29;19919;-75
2023/10/25 00:54:11;;;;;;;;;;;;;;;13.75;63.77;100040.78;4941571;29;19919;-77
2023/10/25 00:56:37;;;;;;;;;;;;;;;13.74;63.52;100043.78;4953062;28;20018;-74
2023/10/25 00:59:02;;;;;;;;;;;;;;;13.72;63.67;100044.06;4946314;28;19926;-75
2023/10/25 01:01:28;;;;;;;;;;;;;;;13.71;63.75;100034.31;4958352;29;19936;-74
2023/10/25 01:03:54;;;;;;;;;;;;;;;13.70;63.61;100034.56;4952317;28;19930;-75
2023/10/25 01:06:19;;;;;;;;;;;;;;;13.69;63.69;100032.97;4953258;29;20275;-74
2023/10/25 01:08:45;;;;;;;;;;;;;;;13.69;63.63;100032.97;4955504;29;19918;-74
2023/10/25 01:11:11;;;;;;;;;;;;;;;13.68;63.51;100042.19;4955547;29;19915;-74
2023/10/25 01:13:36;;;;;;;;;;;;;;;13.66;63.59;100036.22;4948005;28;19930;-74
2023/10/25 01:16:02;;;;;;;;;;;;;;;13.65;63.62;100029.97;4950509;29;19922;-74
2023/10/25 01:18:28;;;;;;;;;;;;;;;13.64;63.54;100025.66;4938935;29;19922;-74
2023/10/25 01:20:54;;;;;;;;;;;;;;;13.63;63.54;100019.44;4941849;29;20017;-75
2023/10/25 01:23:19;;;;;;;;;;;;;;;13.61;63.54;100010.75;4940334;29;19915;-74
2023/10/25 01:25:45;;;;;;;;;;;;;;;13.60;63.50;100011.03;4942957;29;19930;-74
2023/10/25 01:28:11;;;;;;;;;;;;;;;13.59;63.66;100004.78;4938966;29;20331;-75
2023/10/25 01:30:36;;;;;;;;;;;;;;;13.59;63.50;100001.28;4940310;29;19918;-74
2023/10/25 01:33:01;;;;;;;;;;;;;;;13.58;63.54;100003.19;4940050;29;19915;-75
2023/10/25 01:35:27;;;;;;;;;;;;;;;13.56;63.47;100005.34;4940373;29;19958;-74
2023/10/25 01:37:52;;;;;;;;;;;;;;;13.55;63.69;99997.50;4945159;29;20021;-74
2023/10/25 01:40:17;;;;;;;;;;;;;;;13.55;63.49;99997.50;4943671;29;19925;-74
2023/10/25 01:42:43;;;;;;;;;;;;;;;13.54;63.70;99990.44;4951760;28;19958;-75
2023/10/25 01:45:09;;;;;;;;;;;;;;;13.54;63.39;99995.88;4937328;29;20282;-75
2023/10/25 01:47:34;;;;;;;;;;;;;;;13.53;63.62;99988.81;4944775;29;19929;-74
2023/10/25 01:49:59;;;;;;;;;;;;;;;13.53;63.65;99977.97;4954090;29;19929;-74
2023/10/25 01:52:25;;;;;;;;;;;;;;;13.50;63.66;99976.63;4935602;29;20321;-74
2023/10/25 01:54:50;;;;;;;;;;;;;;;13.50;63.37;99984.75;4937239;29;20358;-74
2023/10/25 01:57:16;;;;;;;;;;;;;;;13.50;63.62;99983.94;4953797;28;19918;-75
2023/10/25 01:59:41;;;;;;;;;;;;;;;13.49;63.63;99979.63;4949049;28;19970;-74
2023/10/25 02:02:07;;;;;;;;;;;;;;;13.48;63.48;99978.00;4945653;28;19918;-75
2023/10/25 02:04:32;;;;;;;;;;;;;;;13.49;63.46;99982.34;4936850;29;20275;-75
2023/10/25 02:06:58;;;;;;;;;;;;;;;13.48;63.24;99983.41;4937718;29;19941;-74
2023/10/25 02:09:23;;;;;;;;;;;;;;;13.46;63.38;99970.16;4945989;29;19976;-74
2023/10/25 02:11:48;;;;;;;;;;;;;;;13.45;63.58;99965.78;4936752;29;20045;-74
2023/10/25 02:14:14;;;;;;;;;;;;;;;13.45;63.54;99959.56;4937131;29;20013;-75
2023/10/25 02:16:39;;;;;;;;;;;;;;;13.44;63.43;99963.38;4951249;28;19926;-74
2023/10/25 02:19:04;;;;;;;;;;;;;;;13.44;63.46;99960.66;4967479;28;19922;-75
2023/10/25 02:21:34;;;;;;;;;;;;;;;13.42;63.54;99948.19;4942896;29;20367;-74
2023/10/25 02:24:00;;;;;;;;;;;;;;;13.41;63.60;99941.16;4944522;29;20379;-75
2023/10/25 02:26:27;;;;;;;;;;;;;;;13.40;63.46;99944.13;4936058;29;20026;-74
2023/10/25 02:28:52;;;;;;;;;;;;;;;13.39;63.48;99937.91;4943912;29;19953;-75
2023/10/25 02:31:17;;;;;;;;;;;;;;;13.39;63.52;99927.03;4948727;29;20363;-74
2023/10/25 02:33:43;;;;;;;;;;;;;;;13.39;63.39;99927.03;4942484;28;20275;-74
2023/10/25 02:36:08;;;;;;;;;;;;;;;13.37;63.52;99921.09;4951689;28;19947;-75
2023/10/25 02:38:33;;;;;;;;;;;;;;;13.37;63.40;99912.94;4958363;28;19930;-75
2023/10/25 02:40:58;;;;;;;;;;;;;;;13.37;63.46;99928.41;4963610;28;19969;-75
2023/10/25 02:43:24;;;;;;;;;;;;;;;13.36;63.53;99918.69;4950780;29;20381;-75
2023/10/25 02:45:49;;;;;;;;;;;;;;;13.36;63.22;99915.97;4942212;29;19966;-74
2023/10/25 02:48:15;;;;;;;;;;;;;;;13.36;63.56;99921.38;4938031;29;19970;-75
2023/10/25 02:50:41;;;;;;;;;;;;;;;13.35;63.53;99909.69;4967489;28;20394;-74
2023/10/25 02:53:06;;;;;;;;;;;;;;;13.34;63.71;99902.66;4935831;29;19915;-74
2023/10/25 02:55:32;;;;;;;;;;;;;;;13.33;63.59;99901.06;4935812;29;19919;-75
2023/10/25 02:57:57;;;;;;;;;;;;;;;13.32;63.43;99902.13;4936076;29;20334;-74
2023/10/25 03:00:23;;;;;;;;;;;;;;;13.32;63.35;99904.84;4955653;28;19927;-74
2023/10/25 03:02:48;;;;;;;;;;;;;;;13.32;63.45;99891.28;4951414;29;20357;-75
2023/10/25 03:05:14;;;;;;;;;;;;;;;13.31;63.75;99889.69;4950668;29;19922;-75
2023/10/25 03:07:39;;;;;;;;;;;;;;;13.30;63.64;99887.22;4950118;28;19918;-75
2023/10/25 03:10:04;;;;;;;;;;;;;;;13.29;63.46;99883.72;4946579;29;19918;-75
2023/10/25 03:12:30;;;;;;;;;;;;;;;13.28;63.49;99882.09;4949418;28;19926;-75
2023/10/25 03:14:55;;;;;;;;;;;;;;;13.28;63.65;99884.00;4935884;29;19919;-75
2023/10/25 03:17:21;;;;;;;;;;;;;;;13.27;63.46;99875.03;4941492;29;19944;-75
2023/10/25 03:19:46;;;;;;;;;;;;;;;13.27;63.48;99876.97;4939253;29;20413;-74
2023/10/25 03:22:11;;;;;;;;;;;;;;;13.26;63.59;99876.13;4946323;29;19926;-75
2023/10/25 03:24:37;;;;;;;;;;;;;;;13.26;63.70;99870.69;4948503;29;19922;-74
2023/10/25 03:27:02;;;;;;;;;;;;;;;13.25;63.62;99871.78;4943120;29;20430;-74
2023/10/25 03:29:27;;;;;;;;;;;;;;;13.25;63.68;99866.34;4933957;29;19937;-74
2023/10/25 03:31:57;;;;;;;;;;;;;;;13.25;63.60;99865.53;4940285;29;19914;-74
2023/10/25 03:34:23;;;;;;;;;;;;;;;13.24;63.60;99863.94;4952275;28;19922;-74
2023/10/25 03:36:48;;;;;;;;;;;;;;;13.23;63.42;99867.72;4946131;28;19929;-75
2023/10/25 03:39:15;;;;;;;;;;;;;;;13.22;63.48;99856.06;4950112;28;19922;-74
2023/10/25 03:41:41;;;;;;;;;;;;;;;13.21;63.66;99857.97;4952062;29;19919;-74
2023/10/25 03:44:06;;;;;;;;;;;;;;;13.21;63.38;99859.88;4938150;29;19986;-74
2023/10/25 03:46:31;;;;;;;;;;;;;;;13.21;63.68;99857.16;4938399;29;19919;-74
2023/10/25 03:48:57;;;;;;;;;;;;;;;13.21;63.73;99859.88;4935022;29;19930;-74
2023/10/25 03:51:22;;;;;;;;;;;;;;;13.19;63.59;99860.16;4961628;28;19990;-74
2023/10/25 03:53:47;;;;;;;;;;;;;;;13.19;63.74;99856.63;4934655;29;19928;-75
2023/10/25 03:56:12;;;;;;;;;;;;;;;13.18;63.76;99844.97;4936798;29;20426;-75
2023/10/25 03:58:38;;;;;;;;;;;;;;;13.18;63.64;99849.59;4949541;28;20009;-74
2023/10/25 04:01:04;;;;;;;;;;;;;;;13.17;63.80;99848.78;4944528;28;19926;-76
2023/10/25 04:03:30;;;;;;;;;;;;;;;13.16;63.62;99841.75;4942319;29;19919;-76
2023/10/25 04:05:55;;;;;;;;;;;;;;;13.17;63.51;99853.38;4951256;29;19945;-76
2023/10/25 04:08:21;;;;;;;;;;;;;;;13.15;63.60;99842.00;4953689;28;20379;-76
2023/10/25 04:10:53;;;;;;;;;;;;;;;13.16;63.62;99849.06;4940628;28;20009;-75
2023/10/25 04:13:19;;;;;;;;;;;;;;;13.15;63.70;99844.72;4949412;28;19919;-76
2023/10/25 04:15:52;;;;;;;;;;;;;;;13.14;63.60;99841.22;4946455;29;19977;-76
2023/10/25 04:18:18;;;;;;;;;;;;;;;13.14;63.73;99843.13;4941350;29;19976;-76
2023/10/25 04:20:43;;;;;;;;;;;;;;;13.13;63.28;99845.03;4959007;28;20383;-75
2023/10/25 04:23:08;;;;;;;;;;;;;;;13.13;63.72;99846.94;4946206;29;19942;-75
2023/10/25 04:25:34;;;;;;;;;;;;;;;13.12;63.61;99835.25;4940765;29;19972;-76
2023/10/25 04:27:59;;;;;;;;;;;;;;;13.12;63.73;99837.16;4939412;29;19925;-76
2023/10/25 04:30:24;;;;;;;;;;;;;;;13.11;63.72;99839.06;4953148;29;20043;-75
2023/10/25 04:32:50;;;;;;;;;;;;;;;13.10;63.53;99829.31;4960483;28;20299;-75
2023/10/25 04:35:17;;;;;;;;;;;;;;;13.10;63.47;99825.78;4934447;29;19919;-76
2023/10/25 04:37:42;;;;;;;;;;;;;;;13.09;63.54;99827.69;4943018;29;19915;-75
2023/10/25 04:40:08;;;;;;;;;;;;;;;13.09;63.60;99816.84;4940114;29;20171;-76
2023/10/25 04:42:33;;;;;;;;;;;;;;;13.09;63.80;99816.84;4942351;29;20394;-74
2023/10/25 04:44:58;;;;;;;;;;;;;;;13.09;63.72;99816.03;4937437;29;19915;-76
2023/10/25 04:47:23;;;;;;;;;;;;;;;13.08;63.79;99809.81;4947250;28;20363;-74
2023/10/25 04:49:49;;;;;;;;;;;;;;;13.08;63.68;99807.09;4934060;29;19918;-77
2023/10/25 04:52:14;;;;;;;;;;;;;;;13.07;63.62;99805.47;4951461;28;20434;-76
2023/10/25 04:54:42;;;;;;;;;;;;;;;13.08;63.79;99806.25;4934512;29;19919;-76
2023/10/25 04:57:07;;;;;;;;;;;;;;;13.07;63.77;99793.81;4949842;29;20043;-75
2023/10/25 04:59:32;;;;;;;;;;;;;;;13.06;63.84;99784.88;4934534;29;19914;-76
2023/10/25 05:01:57;;;;;;;;;;;;;;;13.06;63.84;99784.88;4937219;28;20308;-75
2023/10/25 05:04:23;;;;;;;;;;;;;;;13.06;63.77;99782.16;4947012;28;19922;-76
2023/10/25 05:06:48;;;;;;;;;;;;;;;13.05;63.71;99772.41;4948953;28;19977;-74
2023/10/25 05:09:14;;;;;;;;;;;;;;;13.04;63.71;99765.38;4953469;28;19918;-75
2023/10/25 05:11:40;;;;;;;;;;;;;;;13.05;63.63;99764.25;4947415;28;19923;-76
2023/10/25 05:14:06;;;;;;;;;;;;;;;13.03;63.54;99763.75;4951668;28;19922;-75
2023/10/25 05:16:31;;;;;;;;;;;;;;;13.04;63.44;99764.56;4956208;28;20390;-77
2023/10/25 05:18:56;;;;;;;;;;;;;;;13.04;63.52;99767.28;4967019;28;19917;-75
2023/10/25 05:21:25;;;;;;;;;;;;;;;13.04;63.78;99759.13;4949913;28;19918;-76
2023/10/25 05:23:51;;;;;;;;;;;;;;;13.04;63.55;99751.00;4953312;28;19972;-79
2023/10/25 05:26:17;;;;;;;;;;;;;;;13.03;63.79;99738.53;4951945;28;19922;-74
2023/10/25 05:28:42;;;;;;;;;;;;;;;13.03;63.53;99741.25;4950549;28;19918;-77
2023/10/25 05:31:08;;;;;;;;;;;;;;;13.03;63.57;99743.94;4950419;28;19918;-75
2023/10/25 05:33:33;;;;;;;;;;;;;;;13.02;63.63;99735.00;4948271;28;19945;-75
2023/10/25 05:36:02;;;;;;;;;;;;;;;13.01;63.60;99735.31;4949934;28;20379;-76
2023/10/25 05:38:27;;;;;;;;;;;;;;;13.00;63.82;99726.34;4949553;28;19977;-76
2023/10/25 05:40:56;;;;;;;;;;;;;;;12.99;63.42;99722.84;4951228;28;20008;-74
2023/10/25 05:43:28;;;;;;;;;;;;;;;13.01;63.70;99732.59;4950439;28;20386;-75
2023/10/25 05:45:53;;;;;;;;;;;;;;;13.00;63.72;99720.94;4963332;28;19918;-74
2023/10/25 05:48:18;;;;;;;;;;;;;;;13.00;63.88;99720.94;4959539;28;19925;-74
2023/10/25 05:50:45;;;;;;;;;;;;;;;13.00;63.47;99729.06;4949906;28;19930;-75
2023/10/25 05:53:12;;;;;;;;;;;;;;;12.98;63.83;99721.22;4950200;28;19921;-76
2023/10/25 05:55:37;;;;;;;;;;;;;;;12.98;63.70;99713.09;4949951;28;20371;-75
2023/10/25 05:58:02;;;;;;;;;;;;;;;12.98;63.57;99717.72;4952275;28;19933;-75
2023/10/25 06:00:28;;;;;;;;;;;;;;;12.97;63.80;99708.75;4950715;28;19922;-74
2023/10/25 06:02:54;;;;;;;;;;;;;;;12.97;63.71;99711.47;4949072;28;19923;-73
2023/10/25 06:05:20;;;;;;;;;;;;;;;12.96;63.78;99706.34;4952019;28;19919;-76
2023/10/25 06:07:45;;;;;;;;;;;;;;;12.96;63.68;99709.06;4943340;28;20018;-77
2023/10/25 06:10:11;;;;;;;;;;;;;;;12.97;63.81;99699.81;4937271;28;19919;-76
2023/10/25 06:12:36;;;;;;;;;;;;;;;12.97;63.67;99702.53;4936820;29;20033;-70
2023/10/25 06:15:04;;;;;;;;;;;;;;;12.97;63.85;99699.81;4936189;29;20470;-77
2023/10/25 06:17:29;;;;;;;;;;;;;;;12.97;63.73;99697.91;4945788;29;20001;-76
2023/10/25 06:19:54;;;;;;;;;;;;;;;12.97;63.49;99692.50;4943291;29;19957;-76
2023/10/25 06:22:20;;;;;;;;;;;;;;;12.98;63.53;99693.31;4936796;29;20279;-75
2023/10/25 06:24:45;;;;;;;;;;;;;;;12.96;63.54;99688.19;4950424;28;20367;-75
2023/10/25 06:27:10;;;;;;;;;;;;;;;12.97;63.63;99691.69;4948934;29;19926;-75
2023/10/25 06:29:36;;;;;;;;;;;;;;;12.97;63.74;99680.84;4949428;29;19929;-75
2023/10/25 06:32:01;;;;;;;;;;;;;;;12.96;63.72;99679.25;4936237;29;19970;-75
2023/10/25 06:34:26;;;;;;;;;;;;;;;12.96;63.42;99676.53;4936875;29;19941;-74
2023/10/25 06:36:51;;;;;;;;;;;;;;;12.94;63.71;99674.09;4942935;29;19926;-75
2023/10/25 06:39:17;;;;;;;;;;;;;;;12.94;63.73;99674.09;4943279;29;19923;-76
2023/10/25 06:41:43;;;;;;;;;;;;;;;12.95;63.64;99674.88;4936235;29;19919;-76
2023/10/25 06:44:09;;;;;;;;;;;;;;;12.94;63.64;99670.56;4940614;29;19945;-75
2023/10/25 06:46:34;;;;;;;;;;;;;;;12.93;63.71;99675.19;4945122;29;19926;-75
2023/10/25 06:49:00;;;;;;;;;;;;;;;12.92;63.70;99676.28;4953580;29;20338;-75
2023/10/25 06:51:25;;;;;;;;;;;;;;;12.93;63.73;99671.69;4954248;28;19922;-75
2023/10/25 06:53:51;;;;;;;;;;;;;;;12.92;63.73;99670.84;4937454;29;19925;-77
2023/10/25 06:56:16;;;;;;;;;;;;;;;12.92;63.78;99664.63;4960026;28;19923;-75
2023/10/25 06:58:42;;;;;;;;;;;;;;;12.92;63.53;99668.13;4960181;28;19962;-75
2023/10/25 07:01:10;;;;;;;;;;;;;;;12.91;64.01;99655.69;4937497;29;19922;-76
2023/10/25 07:03:36;;;;;;;;;;;;;;;12.92;63.82;99661.91;4950713;29;19918;-78
2023/10/25 07:06:03;;;;;;;;;;;;;;;12.92;63.62;99656.50;4951759;29;19929;-75
2023/10/25 07:08:29;;;;;;;;;;;;;;;12.91;63.64;99654.88;4941823;29;19918;-75
2023/10/25 07:10:55;;;;;;;;;;;;;;;12.90;63.76;99647.84;4936921;28;19973;-75
2023/10/25 07:13:20;;;;;;;;;;;;;;;12.90;63.83;99647.84;4941671;29;19927;-75
2023/10/25 07:15:45;;;;;;;;;;;;;;;12.91;63.79;99644.06;4935509;29;20419;-78
2023/10/25 07:18:11;;;;;;;;;;;;;;;12.91;63.71;99636.72;4938449;28;19929;-81
2023/10/25 07:20:36;;;;;;;;;;;;;;;12.91;63.81;99636.72;4941837;29;19985;-76
2023/10/25 07:23:02;;;;;;;;;;;;;;;12.92;63.69;99634.81;4933995;29;19918;-74
2023/10/25 07:25:28;;;;;;;;;;;;;;;12.92;63.61;99629.38;4949010;28;19926;-76
2023/10/25 07:27:53;;;;;;;;;;;;;;;12.93;63.62;99620.19;4935149;28;19942;-76
2023/10/25 07:30:18;;;;;;;;;;;;;;;12.92;63.85;99616.63;4960209;28;20379;-76
2023/10/25 07:32:43;;;;;;;;;;;;;;;12.91;63.82;99623.16;4950938;29;19926;-78
2023/10/25 07:35:09;;;;;;;;;;;;;;;12.92;63.85;99607.72;4948505;29;19982;-77
2023/10/25 07:37:34;;;;;;;;;;;;;;;12.92;63.70;99605.00;4933360;29;20299;-76
2023/10/25 07:39:59;;;;;;;;;;;;;;;12.92;63.63;99603.09;4932481;29;19950;-76
2023/10/25 07:42:25;;;;;;;;;;;;;;;12.92;63.75;99600.38;4948017;29;20005;-77
2023/10/25 07:44:50;;;;;;;;;;;;;;;12.92;63.50;99597.66;4946388;29;19929;-76
2023/10/25 07:47:17;;;;;;;;;;;;;;;12.92;63.74;99592.25;4948326;28;19922;-75
2023/10/25 07:49:45;;;;;;;;;;;;;;;12.91;63.46;99585.22;4948804;28;19925;-77
2023/10/25 07:52:11;;;;;;;;;;;;;;;12.91;63.41;99584.41;4944013;29;20375;-75
2023/10/25 07:54:36;;;;;;;;;;;;;;;12.90;63.62;99578.19;4947697;28;20013;-77
2023/10/25 07:57:01;;;;;;;;;;;;;;;12.90;63.70;99572.78;4947572;29;20382;-76
2023/10/25 07:59:27;;;;;;;;;;;;;;;12.89;63.56;99565.72;4937891;29;20358;-77
2023/10/25 08:01:52;;;;;;;;;;;;;;;12.88;63.44;99569.53;4937376;29;19931;-77
2023/10/25 08:04:18;;;;;;;;;;;;;;;12.88;63.62;99571.44;4945759;28;19915;-77
2023/10/25 08:06:44;;;;;;;;;;;;;;;12.87;63.60;99567.09;4948592;29;19928;-77
2023/10/25 08:09:09;;;;;;;;;;;;;;;12.87;63.44;99562.50;4933310;29;19945;-77
2023/10/25 08:11:36;;;;;;;;;;;;;;;12.89;63.70;99551.38;4941868;29;19945;-77
2023/10/25 08:14:02;;;;;;;;;;;;;;;12.89;63.54;99554.09;4934900;29;19925;-76
2023/10/25 08:16:27;;;;;;;;;;;;;;;12.88;63.78;99550.56;4933315;29;19931;-78
2023/10/25 08:18:53;;;;;;;;;;;;;;;12.88;63.70;99549.75;4942548;29;19923;-78
2023/10/25 08:21:18;;;;;;;;;;;;;;;12.88;63.73;99547.06;4933298;29;19918;-78
2023/10/25 08:23:51;;;;;;;;;;;;;;;12.89;63.82;99543.25;4951078;29;19929;-79
2023/10/25 08:26:16;;;;;;;;;;;;;;;12.89;63.82;99538.63;4942413;28;19923;-77
2023/10/25 08:28:42;;;;;;;;;;;;;;;12.88;63.58;99537.03;4945698;29;19988;-77
2023/10/25 08:31:11;;;;;;;;;;;;;;;12.89;63.67;99541.34;4940296;28;20341;-78
2023/10/25 08:33:36;;;;;;;;;;;;;;;12.89;63.56;99530.50;4947246;29;19929;-78
2023/10/25 08:36:02;;;;;;;;;;;;;;;12.90;63.69;99526.69;4938722;29;19923;-76
2023/10/25 08:38:27;;;;;;;;;;;;;;;12.90;63.59;99523.16;4939692;29;19929;-76
2023/10/25 08:40:59;;;;;;;;;;;;;;;12.89;63.65;99525.06;4943554;29;20394;-76
2023/10/25 08:43:25;;;;;;;;;;;;;;;12.89;63.61;99508.00;4939085;29;20409;-75
2023/10/25 08:45:52;;;;;;;;;;;;;;;12.89;63.85;99510.72;4934528;28;19919;-75
2023/10/25 08:48:17;;;;;;;;;;;;;;;12.88;63.86;99496.38;4936887;29;19926;-75
2023/10/25 08:50:43;;;;;;;;;;;;;;;12.88;63.87;99492.84;4954231;29;19945;-75
2023/10/25 08:53:08;;;;;;;;;;;;;;;12.87;63.68;99500.16;4954481;28;20048;-76
2023/10/25 08:55:34;;;;;;;;;;;;;;;12.86;63.77;99501.25;4949984;29;20024;-77
2023/10/25 08:57:59;;;;;;;;;;;;;;;12.87;63.88;99507.47;4954616;28;19919;-76
2023/10/25 09:00:28;;;;;;;;;;;;;;;12.86;63.75;99487.72;4959786;28;20283;-76
2023/10/25 09:02:54;;;;;;;;;;;;;;;12.86;63.94;99485.00;4936518;29;19922;-76
2023/10/25 09:05:19;;;;;;;;;;;;;;;12.87;63.96;99469.53;4948164;29;20367;-76
2023/10/25 09:07:44;;;;;;;;;;;;;;;12.85;63.72;99467.13;4954981;28;19922;-76
2023/10/25 09:10:11;;;;;;;;;;;;;;;12.85;63.90;99461.72;4950219;28;19950;-77
2023/10/25 09:12:37;;;;;;;;;;;;;;;12.84;63.74;99451.97;4948800;29;19973;-77
2023/10/25 09:15:03;;;;;;;;;;;;;;;12.83;63.94;99447.66;4952429;28;19958;-77
2023/10/25 09:17:30;;;;;;;;;;;;;;;12.83;63.98;99447.66;4936810;29;20017;-77
2023/10/25 09:19:55;;;;;;;;;;;;;;;12.83;63.97;99452.25;4941953;29;19930;-76
2023/10/25 09:22:22;;;;;;;;;;;;;;;12.81;63.81;99452.53;4950801;28;19929;-75
2023/10/25 09:24:47;;;;;;;;;;;;;;;12.80;63.93;99439.28;4965296;28;19933;-78
2023/10/25 09:27:13;;;;;;;;;;;;;;;12.76;63.74;99426.31;4950960;28;20328;-76
2023/10/25 09:29:38;;;;;;;;;;;;;;;12.75;63.92;99435.53;4944483;29;20357;-78
2023/10/25 09:32:07;;;;;;;;;;;;;;;12.74;63.72;99433.09;4943197;28;19919;-75
2023/10/25 09:34:33;;;;;;;;;;;;;;;12.73;63.92;99432.31;4936472;29;20015;-76
2023/10/25 09:36:59;;;;;;;;;;;;;;;12.73;63.99;99423.38;4950102;28;20014;-77
2023/10/25 09:39:24;;;;;;;;;;;;;;;12.72;64.01;99419.03;4953853;28;19926;-77
2023/10/25 09:41:52;;;;;;;;;;;;;;;12.72;63.89;99427.16;4952603;29;19993;-77
2023/10/25 09:44:19;;;;;;;;;;;;;;;12.73;64.07;99423.38;4938709;29;20328;-77
2023/10/25 09:46:45;;;;;;;;;;;;;;;12.71;64.03;99415.53;4936397;29;20299;-77
2023/10/25 09:49:14;;;;;;;;;;;;;;;12.71;64.28;99412.03;4952474;29;19973;-80
2023/10/25 09:51:42;;;;;;;;;;;;;;;12.71;64.36;99412.03;4935970;29;19914;-77
2023/10/25 09:54:11;;;;;;;;;;;;;;;12.71;64.55;99409.31;4950724;29;19918;-79
2023/10/25 09:56:37;;;;;;;;;;;;;;;12.72;64.26;99405.50;4950544;28;20013;-79
2023/10/25 09:59:04;;;;;;;;;;;;;;;12.72;64.34;99405.50;4961582;28;20458;-78
2023/10/25 10:01:29;;;;;;;;;;;;;;;12.70;64.50;99400.38;4945704;28;20347;-78
2023/10/25 10:04:02;;;;;;;;;;;;;;;12.70;64.47;99381.41;4953216;28;20146;-78
2023/10/25 10:06:35;;;;;;;;;;;;;;;12.71;64.16;99391.16;4953596;29;19925;-79
2023/10/25 10:09:10;;;;;;;;;;;;;;;12.70;64.42;99373.28;4948878;29;19925;-78
2023/10/25 10:11:37;;;;;;;;;;;;;;;12.71;64.46;99371.38;4940951;29;19922;-80
2023/10/25 10:14:21;;;;;;;;;;;;;;;12.69;64.34;99371.66;4950946;28;19962;-76
2023/10/25 10:16:48;;;;;;;;;;;;;;;12.67;64.42;99365.72;4935026;29;20356;-77
2023/10/25 10:19:13;;;;;;;;;;;;;;;12.68;64.47;99371.97;4941169;29;19918;-76
2023/10/25 10:22:14;;;;;;;;;;;;;;;12.67;64.55;99354.09;4947018;29;20275;-77
2023/10/25 10:24:42;;;;;;;;;;;;;;;12.67;64.83;99349.47;4887273;29;19958;-77
2023/10/25 10:27:07;;;;;;;;;;;;;;;12.67;64.57;99344.03;4930424;29;20339;-77
2023/10/25 10:29:33;;;;;;;;;;;;;;;12.68;64.53;99340.25;4940470;29;20350;-77
2023/10/25 10:31:59;;;;;;;;;;;;;;;12.67;64.55;99338.63;4948739;28;19922;-77
2023/10/25 10:34:37;;;;;;;;;;;;;;;12.68;64.60;99336.75;4951444;29;20128;-77
2023/10/25 10:37:07;;;;;;;;;;;;;;;12.69;64.80;99330.22;4949173;28;19914;-78
2023/10/25 10:39:32;;;;;;;;;;;;;;;12.68;64.73;99324.00;4937656;29;19921;-77
2023/10/25 10:42:01;;;;;;;;;;;;;;;12.70;64.89;99318.28;4949628;28;19922;-77
2023/10/25 10:44:26;;;;;;;;;;;;;;;12.70;64.82;99318.28;4952089;29;20297;-77
2023/10/25 10:46:52;;;;;;;;;;;;;;;12.72;64.65;99305.25;4951350;29;20370;-77
2023/10/25 10:49:18;;;;;;;;;;;;;;;12.71;64.74;99299.03;4953612;28;19915;-77
2023/10/25 10:51:44;;;;;;;;;;;;;;;12.72;65.06;99300.63;4951222;28;20005;-76
2023/10/25 10:54:09;;;;;;;;;;;;;;;12.72;64.99;99284.38;4942217;29;20009;-76
2023/10/25 10:56:34;;;;;;;;;;;;;;;12.72;65.11;99278.94;4958388;28;19927;-77
2023/10/25 10:59:00;;;;;;;;;;;;;;;12.72;64.91;99276.25;4951467;29;19926;-77
2023/10/25 11:01:26;;;;;;;;;;;;;;;12.73;65.00;99274.38;4943835;29;19923;-77
2023/10/25 11:03:51;;;;;;;;;;;;;;;12.72;64.99;99267.31;4937550;28;19922;-77
2023/10/25 11:06:18;;;;;;;;;;;;;;;12.72;65.16;99261.91;4940660;29;19918;-76
2023/10/25 11:08:43;;;;;;;;;;;;;;;12.72;65.22;99257.28;4936188;29;19969;-76
2023/10/25 11:11:08;;;;;;;;;;;;;;;12.69;65.13;99255.16;4952278;28;20029;-76
2023/10/25 11:13:34;;;;;;;;;;;;;;;12.71;65.27;99247.56;4949876;29;20025;-77
2023/10/25 11:16:03;;;;;;;;;;;;;;;12.72;65.45;99249.16;4950994;28;19929;-77
2023/10/25 11:18:28;;;;;;;;;;;;;;;12.71;65.23;99235.91;4945945;29;20030;-78
2023/10/25 11:20:54;;;;;;;;;;;;;;;12.71;65.42;99233.22;4951350;29;20017;-78
2023/10/25 11:23:19;;;;;;;;;;;;;;;12.72;65.40;99229.38;4953042;28;19946;-79
2023/10/25 11:25:45;;;;;;;;;;;;;;;12.72;65.33;99224.78;4952803;28;19985;-77
2023/10/25 11:28:15;;;;;;;;;;;;;;;12.74;65.29;99217.16;4939929;28;19919;-77
2023/10/25 11:30:40;;;;;;;;;;;;;;;12.74;65.67;99213.66;4948539;29;19926;-80
2023/10/25 11:33:07;;;;;;;;;;;;;;;12.75;65.34;99207.13;4942551;29;20377;-81
2023/10/25 11:35:35;;;;;;;;;;;;;;;12.74;65.50;99203.63;4948903;28;20291;-80
2023/10/25 11:38:00;;;;;;;;;;;;;;;12.74;65.57;99198.19;4934029;29;20418;-80
2023/10/25 11:40:38;;;;;;;;;;;;;;;12.75;65.50;99199.00;4950515;29;19918;-81
2023/10/25 11:43:04;;;;;;;;;;;;;;;12.74;65.58;99190.06;4934813;29;20334;-81
2023/10/25 11:45:29;;;;;;;;;;;;;;;12.73;65.60;99185.75;4949577;28;20367;-80
2023/10/25 11:47:55;;;;;;;;;;;;;;;12.75;65.58;99191.69;4936787;29;20401;-81
2023/10/25 11:50:20;;;;;;;;;;;;;;;12.74;65.59;99181.94;4948067;29;19930;-80
2023/10/25 11:52:45;;;;;;;;;;;;;;;12.74;65.86;99181.94;4930471;29;19934;-80
2023/10/25 11:55:11;;;;;;;;;;;;;;;12.75;65.88;99177.31;4939448;29;19918;-79
2023/10/25 11:57:36;;;;;;;;;;;;;;;12.74;65.74;99176.50;4933849;29;19915;-80
2023/10/25 12:00:02;;;;;;;;;;;;;;;12.75;65.85;99171.91;4959554;28;20037;-79
2023/10/25 12:02:27;;;;;;;;;;;;;;;12.76;65.78;99165.41;4946421;28;19919;-81
2023/10/25 12:04:53;;;;;;;;;;;;;;;12.76;65.92;99159.97;4942454;28;20382;-79
2023/10/25 12:07:21;;;;;;;;;;;;;;;12.76;65.75;99154.56;4933597;29;19922;-81
2023/10/25 12:09:46;;;;;;;;;;;;;;;12.76;66.04;99154.56;4944316;29;19973;-80
2023/10/25 12:12:12;;;;;;;;;;;;;;;12.75;65.94;99142.94;4943642;29;19919;-81
2023/10/25 12:14:37;;;;;;;;;;;;;;;12.77;66.06;99148.03;4935485;28;20105;-81
2023/10/25 12:17:03;;;;;;;;;;;;;;;12.82;65.87;99147.16;4933401;29;19918;-82
2023/10/25 12:19:28;;;;;;;;;;;;;;;12.84;66.07;99137.63;4940545;29;19918;-80
2023/10/25 12:21:56;;;;;;;;;;;;;;;12.87;66.15;99130.81;4949986;28;19977;-81
2023/10/25 12:24:23;;;;;;;;;;;;;;;12.87;66.04;99133.50;4941933;29;19922;-81
2023/10/25 12:26:49;;;;;;;;;;;;;;;12.88;65.98;99125.09;4933251;29;19952;-84
2023/10/25 12:29:14;;;;;;;;;;;;;;;12.88;65.98;99135.13;4937636;29;20012;-81
2023/10/25 12:31:39;;;;;;;;;;;;;;;12.88;65.82;99116.97;4946045;29;19922;-83
2023/10/25 12:34:04;;;;;;;;;;;;;;;12.90;65.60;99124.78;4950942;29;19933;-84
2023/10/25 12:36:29;;;;;;;;;;;;;;;12.90;66.01;99128.31;4967214;28;19974;-83
2023/10/25 12:38:55;;;;;;;;;;;;;;;12.89;66.05;99123.19;4951106;28;20421;-81